Time;durP1;ratioP1;P1;durP2;ratioP2;P2;SDS_P1;SDS_P2;PMS_P1;PMS_P2;Temp;Humidity;BMP_temperature;BMP_pressure;BME280_temperature;BME280_humidity;BME280_pressure;Samples;Min_cycle;Max_cycle;Signal;HPM_P1;HPM_P2
2023/04/17 00:01:06;;;;;;;33.20;25.70;;;;;;;;;;5112155;28;20525;-69
2023/04/17 00:03:33;;;;;;;31.40;25.47;;;;;;;;;;5121686;28;20572;-69
2023/04/17 00:05:59;;;;;;;29.43;24.57;;;;;;;;;;5097220;28;21007;-70
2023/04/17 00:08:27;;;;;;;33.77;26.17;;;;;;;;;;5125296;28;20492;-69
2023/04/17 00:10:53;;;;;;;36.77;26.17;;;;;;;;;;5107698;28;20463;-69
2023/04/17 00:13:20;;;;;;;35.17;25.37;;;;;;;;;;5103469;28;20454;-69
2023/04/17 00:15:46;;;;;;;41.17;26.30;;;;;;;;;;5093016;28;20521;-69
2023/04/17 00:18:13;;;;;;;40.73;27.10;;;;;;;;;;5103765;28;20529;-69
2023/04/17 00:20:40;;;;;;;35.03;27.83;;;;;;;;;;5102156;28;20470;-69
2023/04/17 00:23:06;;;;;;;31.80;26.10;;;;;;;;;;5124598;28;20485;-70
2023/04/17 00:25:34;;;;;;;32.80;25.87;;;;;;;;;;5117492;28;20479;-70
2023/04/17 00:28:00;;;;;;;35.63;27.67;;;;;;;;;;5106095;28;20474;-70
2023/04/17 00:30:27;;;;;;;35.50;27.10;;;;;;;;;;5098662;28;20492;-70
2023/04/17 00:32:53;;;;;;;32.60;26.60;;;;;;;;;;5105598;28;21392;-70
2023/04/17 00:35:20;;;;;;;34.33;26.17;;;;;;;;;;5103898;28;20515;-70
2023/04/17 00:37:47;;;;;;;37.67;27.20;;;;;;;;;;5104359;28;20539;-70
2023/04/17 00:40:14;;;;;;;35.90;27.90;;;;;;;;;;5101830;28;20486;-70
2023/04/17 00:42:42;;;;;;;37.00;28.80;;;;;;;;;;5101399;28;20472;-70
2023/04/17 00:45:09;;;;;;;38.43;28.57;;;;;;;;;;5109135;28;20539;-70
2023/04/17 00:47:38;;;;;;;34.40;28.30;;;;;;;;;;5101577;28;20553;-69
2023/04/17 00:50:05;;;;;;;35.43;27.70;;;;;;;;;;5105137;28;20476;-70
2023/04/17 00:52:31;;;;;;;33.03;27.30;;;;;;;;;;5111201;28;20463;-70
2023/04/17 00:54:59;;;;;;;36.40;27.20;;;;;;;;;;5108057;28;20518;-70
2023/04/17 00:57:27;;;;;;;35.00;27.60;;;;;;;;;;5113330;28;20478;-70
2023/04/17 00:59:55;;;;;;;34.23;28.60;;;;;;;;;;5125368;27;20485;-70
2023/04/17 01:02:22;;;;;;;33.30;25.60;;;;;;;;;;5110001;28;20506;-70
2023/04/17 01:04:48;;;;;;;32.20;26.57;;;;;;;;;;5118957;28;20544;-70
2023/04/17 01:07:15;;;;;;;33.83;26.90;;;;;;;;;;5106914;28;20848;-70
2023/04/17 01:09:41;;;;;;;37.83;27.80;;;;;;;;;;5108242;28;20455;-71
2023/04/17 01:12:17;;;;;;;34.50;26.63;;;;;;;;;;5115605;28;20474;-70
2023/04/17 01:14:44;;;;;;;30.63;25.17;;;;;;;;;;5118900;28;20451;-69
2023/04/17 01:17:13;;;;;;;34.43;26.43;;;;;;;;;;5106884;28;20454;-69
2023/04/17 01:19:39;;;;;;;32.40;25.73;;;;;;;;;;5112549;28;20881;-69
2023/04/17 01:22:06;;;;;;;31.70;25.47;;;;;;;;;;5115849;28;20486;-69
2023/04/17 01:24:33;;;;;;;32.77;25.53;;;;;;;;;;5110874;28;20565;-69
2023/04/17 01:27:00;;;;;;;39.57;28.27;;;;;;;;;;5120134;28;20510;-69
2023/04/17 01:29:26;;;;;;;33.30;27.23;;;;;;;;;;5117089;28;20459;-69
2023/04/17 01:31:53;;;;;;;32.57;25.97;;;;;;;;;;5110203;28;20493;-68
2023/04/17 01:34:19;;;;;;;38.47;26.97;;;;;;;;;;5116247;28;20455;-68
2023/04/17 01:36:46;;;;;;;34.77;27.70;;;;;;;;;;5120776;28;20985;-68
2023/04/17 01:39:12;;;;;;;33.00;27.07;;;;;;;;;;5116233;28;20970;-68
2023/04/17 01:41:40;;;;;;;33.93;25.90;;;;;;;;;;5119118;28;20478;-68
2023/04/17 01:44:06;;;;;;;33.53;26.70;;;;;;;;;;5116710;28;20521;-68
2023/04/17 01:46:32;;;;;;;34.43;25.37;;;;;;;;;;5108594;28;20548;-68
2023/04/17 01:48:59;;;;;;;34.50;26.37;;;;;;;;;;5116419;28;21023;-68
2023/04/17 01:51:26;;;;;;;35.00;25.50;;;;;;;;;;5114960;28;20459;-68
2023/04/17 01:53:53;;;;;;;32.97;24.90;;;;;;;;;;5112704;28;20459;-68
2023/04/17 01:56:19;;;;;;;35.70;28.27;;;;;;;;;;5121591;28;20470;-68
2023/04/17 01:58:47;;;;;;;34.90;26.97;;;;;;;;;;5111429;28;20493;-69
2023/04/17 02:01:13;;;;;;;32.90;26.00;;;;;;;;;;5118177;28;20481;-69
2023/04/17 02:03:40;;;;;;;33.20;25.60;;;;;;;;;;5107494;27;20568;-67
2023/04/17 02:06:07;;;;;;;38.30;26.80;;;;;;;;;;5114857;27;20465;-78
2023/04/17 02:08:34;;;;;;;30.00;25.50;;;;;;;;;;5107859;27;20518;-79
2023/04/17 02:11:01;;;;;;;29.23;24.90;;;;;;;;;;5128130;27;20461;-77
2023/04/17 02:13:27;;;;;;;31.13;25.47;;;;;;;;;;5114908;28;20443;-70
2023/04/17 02:15:55;;;;;;;34.60;25.47;;;;;;;;;;5119431;27;20503;-70
2023/04/17 02:18:22;;;;;;;34.80;25.90;;;;;;;;;;5117574;28;20459;-70
2023/04/17 02:20:48;;;;;;;31.53;24.00;;;;;;;;;;5115100;28;20489;-70
2023/04/17 02:23:15;;;;;;;34.27;27.00;;;;;;;;;;5106164;27;20450;-71
2023/04/17 02:25:41;;;;;;;33.20;25.70;;;;;;;;;;5117514;27;20481;-70
2023/04/17 02:28:08;;;;;;;32.63;25.47;;;;;;;;;;5119129;28;20966;-70
2023/04/17 02:30:34;;;;;;;32.50;26.03;;;;;;;;;;5109669;28;21031;-68
2023/04/17 02:33:02;;;;;;;30.13;24.30;;;;;;;;;;5102959;28;20468;-67
2023/04/17 02:35:32;;;;;;;32.80;25.00;;;;;;;;;;5105529;28;20459;-68
2023/04/17 02:37:59;;;;;;;34.40;25.70;;;;;;;;;;5113187;28;20439;-67
2023/04/17 02:40:25;;;;;;;34.77;25.17;;;;;;;;;;5108649;28;20480;-68
2023/04/17 02:42:52;;;;;;;31.73;23.73;;;;;;;;;;5109204;28;20488;-68
2023/04/17 02:45:18;;;;;;;32.13;25.30;;;;;;;;;;5116718;28;20524;-67
2023/04/17 02:47:44;;;;;;;30.07;23.73;;;;;;;;;;5112034;28;20851;-68
2023/04/17 02:50:13;;;;;;;33.57;25.27;;;;;;;;;;5118391;28;20449;-67
2023/04/17 02:52:40;;;;;;;31.43;22.70;;;;;;;;;;5103153;28;20539;-68
2023/04/17 02:55:06;;;;;;;38.33;27.40;;;;;;;;;;5106268;28;20434;-68
2023/04/17 02:57:33;;;;;;;29.47;24.30;;;;;;;;;;5106075;28;20449;-69
2023/04/17 03:00:00;;;;;;;33.47;25.47;;;;;;;;;;5109750;28;20520;-69
2023/04/17 03:02:26;;;;;;;32.90;24.70;;;;;;;;;;5105019;28;20458;-69
2023/04/17 03:04:53;;;;;;;31.53;24.40;;;;;;;;;;5102668;28;20594;-69
2023/04/17 03:07:22;;;;;;;31.50;25.47;;;;;;;;;;5104470;28;20471;-69
2023/04/17 03:09:49;;;;;;;29.30;25.03;;;;;;;;;;5115735;28;20458;-69
2023/04/17 03:12:15;;;;;;;34.00;24.57;;;;;;;;;;5104398;28;20459;-68
2023/04/17 03:14:42;;;;;;;30.50;24.30;;;;;;;;;;5111679;28;20511;-69
2023/04/17 03:17:09;;;;;;;29.80;23.70;;;;;;;;;;5111998;28;20474;-69
2023/04/17 03:19:36;;;;;;;27.53;23.30;;;;;;;;;;5110073;28;20462;-69
2023/04/17 03:22:02;;;;;;;29.70;23.80;;;;;;;;;;5121053;28;20537;-69
2023/04/17 03:24:30;;;;;;;33.90;25.27;;;;;;;;;;5106907;28;20519;-67
2023/04/17 03:26:56;;;;;;;29.40;24.40;;;;;;;;;;5120907;28;20446;-67
2023/04/17 03:29:23;;;;;;;27.57;23.80;;;;;;;;;;5117684;28;20526;-67
2023/04/17 03:31:49;;;;;;;32.83;25.13;;;;;;;;;;5114671;28;20489;-67
2023/04/17 03:34:16;;;;;;;31.60;24.50;;;;;;;;;;5109921;28;20494;-67
2023/04/17 03:36:42;;;;;;;35.53;24.17;;;;;;;;;;5120889;28;21106;-67
2023/04/17 03:39:09;;;;;;;29.80;23.33;;;;;;;;;;5111190;28;20525;-67
2023/04/17 03:41:37;;;;;;;30.43;24.07;;;;;;;;;;5117477;28;20477;-67
2023/04/17 03:44:04;;;;;;;27.50;22.27;;;;;;;;;;5115026;28;20538;-67
2023/04/17 03:46:30;;;;;;;34.27;23.80;;;;;;;;;;5115002;28;20478;-67
2023/04/17 03:48:56;;;;;;;29.53;22.77;;;;;;;;;;5117353;28;20480;-67
2023/04/17 03:51:23;;;;;;;31.63;25.87;;;;;;;;;;5118059;28;20491;-70
2023/04/17 03:53:50;;;;;;;32.60;25.23;;;;;;;;;;5118440;28;20513;-71
2023/04/17 03:56:16;;;;;;;31.60;25.73;;;;;;;;;;5126123;28;20470;-70
2023/04/17 03:58:44;;;;;;;41.17;24.87;;;;;;;;;;5127188;28;20450;-70
2023/04/17 04:01:11;;;;;;;34.50;23.23;;;;;;;;;;5113551;27;20488;-70
2023/04/17 04:03:37;;;;;;;29.30;22.87;;;;;;;;;;5122462;27;20478;-70
2023/04/17 04:06:06;;;;;;;32.23;24.23;;;;;;;;;;5121019;27;20522;-71
2023/04/17 04:08:32;;;;;;;30.57;23.63;;;;;;;;;;5130441;27;20468;-71
2023/04/17 04:10:59;;;;;;;30.43;24.97;;;;;;;;;;5123376;27;20707;-70
2023/04/17 04:13:26;;;;;;;28.73;23.17;;;;;;;;;;5124467;28;20483;-70
2023/04/17 04:15:53;;;;;;;28.10;22.17;;;;;;;;;;5116113;28;20519;-70
2023/04/17 04:18:20;;;;;;;29.80;24.63;;;;;;;;;;5109606;28;20542;-70
2023/04/17 04:20:47;;;;;;;32.77;25.30;;;;;;;;;;5120602;27;20517;-70
2023/04/17 04:23:15;;;;;;;31.33;25.07;;;;;;;;;;5118626;27;20450;-70
2023/04/17 04:25:42;;;;;;;33.90;24.50;;;;;;;;;;5106436;27;20541;-70
2023/04/17 04:28:09;;;;;;;28.90;23.60;;;;;;;;;;5127219;27;20445;-72
2023/04/17 04:30:37;;;;;;;31.07;22.97;;;;;;;;;;5127016;27;20437;-71
2023/04/17 04:33:07;;;;;;;33.00;25.10;;;;;;;;;;5127724;27;20544;-78
2023/04/17 04:35:34;;;;;;;34.73;24.13;;;;;;;;;;5124875;27;20523;-78
2023/04/17 04:38:01;;;;;;;29.57;23.73;;;;;;;;;;5109074;28;20434;-79
2023/04/17 04:40:27;;;;;;;26.70;22.90;;;;;;;;;;5109754;27;20454;-72
2023/04/17 04:42:54;;;;;;;31.13;23.77;;;;;;;;;;5112254;28;20541;-76
2023/04/17 04:45:21;;;;;;;28.77;23.30;;;;;;;;;;5125646;27;20500;-78
2023/04/17 04:47:47;;;;;;;29.13;22.60;;;;;;;;;;5108385;28;20473;-75
2023/04/17 04:50:15;;;;;;;30.17;24.23;;;;;;;;;;5113020;28;20486;-79
2023/04/17 04:52:41;;;;;;;29.20;23.40;;;;;;;;;;5123057;28;20710;-77
2023/04/17 04:55:08;;;;;;;30.40;23.40;;;;;;;;;;5124388;27;20485;-78
2023/04/17 04:57:35;;;;;;;30.13;22.83;;;;;;;;;;5111665;28;20473;-79
2023/04/17 05:00:02;;;;;;;25.90;22.20;;;;;;;;;;5117190;27;20453;-79
2023/04/17 05:02:28;;;;;;;29.03;22.10;;;;;;;;;;5116159;28;20468;-77
2023/04/17 05:04:54;;;;;;;27.47;20.13;;;;;;;;;;5120107;28;20544;-70
2023/04/17 05:07:22;;;;;;;29.07;23.07;;;;;;;;;;5122281;27;20498;-73
2023/04/17 05:09:49;;;;;;;27.43;22.17;;;;;;;;;;5117455;27;20446;-74
2023/04/17 05:12:15;;;;;;;28.23;21.83;;;;;;;;;;5133553;27;20460;-74
2023/04/17 05:14:41;;;;;;;29.83;22.10;;;;;;;;;;5117270;27;20469;-74
2023/04/17 05:17:08;;;;;;;26.87;21.83;;;;;;;;;;5124398;27;20485;-74
2023/04/17 05:19:34;;;;;;;29.60;22.07;;;;;;;;;;5113391;27;20465;-75
2023/04/17 05:22:00;;;;;;;25.80;21.57;;;;;;;;;;5124579;27;20485;-75
2023/04/17 05:24:28;;;;;;;29.30;22.00;;;;;;;;;;5130120;27;20533;-73
2023/04/17 05:26:55;;;;;;;33.60;22.70;;;;;;;;;;5123145;27;20537;-73
2023/04/17 05:29:23;;;;;;;29.90;22.03;;;;;;;;;;5120544;27;20457;-74
2023/04/17 05:31:50;;;;;;;33.57;22.13;;;;;;;;;;5112024;28;20466;-73
2023/04/17 05:34:16;;;;;;;32.27;22.90;;;;;;;;;;5118737;28;20470;-72
2023/04/17 05:36:42;;;;;;;28.33;21.10;;;;;;;;;;5119203;28;20442;-74
2023/04/17 05:39:09;;;;;;;31.10;22.43;;;;;;;;;;5113395;28;20478;-74
2023/04/17 05:41:37;;;;;;;27.33;20.97;;;;;;;;;;5106244;28;20447;-74
2023/04/17 05:44:03;;;;;;;26.73;21.97;;;;;;;;;;5098358;28;20435;-74
2023/04/17 05:46:29;;;;;;;28.23;21.53;;;;;;;;;;5104756;28;20494;-73
2023/04/17 05:48:56;;;;;;;29.10;22.27;;;;;;;;;;5107759;28;20448;-74
2023/04/17 05:51:22;;;;;;;30.20;22.30;;;;;;;;;;5110392;28;20484;-74
2023/04/17 05:53:49;;;;;;;27.20;20.47;;;;;;;;;;5111137;28;20470;-73
2023/04/17 05:56:15;;;;;;;25.20;20.10;;;;;;;;;;5118221;28;20478;-73
2023/04/17 05:58:43;;;;;;;30.30;21.47;;;;;;;;;;5116026;28;20474;-73
2023/04/17 06:01:11;;;;;;;24.93;20.20;;;;;;;;;;5105215;28;20979;-73
2023/04/17 06:03:38;;;;;;;23.90;20.07;;;;;;;;;;5108751;28;20891;-72
2023/04/17 06:06:04;;;;;;;26.47;20.83;;;;;;;;;;5111798;28;20862;-73
2023/04/17 06:08:31;;;;;;;25.00;19.63;;;;;;;;;;5120888;28;20947;-73
2023/04/17 06:10:57;;;;;;;25.50;19.83;;;;;;;;;;5104304;28;20474;-73
2023/04/17 06:13:24;;;;;;;25.07;19.77;;;;;;;;;;5121133;28;20480;-71
2023/04/17 06:15:52;;;;;;;25.93;20.07;;;;;;;;;;5112010;28;20791;-73
2023/04/17 06:18:18;;;;;;;26.60;18.87;;;;;;;;;;5105004;28;20478;-72
2023/04/17 06:20:46;;;;;;;26.70;20.33;;;;;;;;;;5101618;28;20479;-73
2023/04/17 06:23:13;;;;;;;25.93;19.60;;;;;;;;;;5107887;28;20460;-73
2023/04/17 06:25:39;;;;;;;32.40;20.90;;;;;;;;;;5104953;28;20486;-73
2023/04/17 06:28:06;;;;;;;23.40;18.17;;;;;;;;;;5109251;28;20534;-73
2023/04/17 06:30:32;;;;;;;24.67;19.77;;;;;;;;;;5120191;28;20450;-73
2023/04/17 06:33:00;;;;;;;26.10;18.87;;;;;;;;;;5110429;28;20529;-73
2023/04/17 06:35:26;;;;;;;23.07;18.50;;;;;;;;;;5114689;28;20486;-72
2023/04/17 06:37:52;;;;;;;25.03;19.33;;;;;;;;;;5112913;28;20807;-74
2023/04/17 06:40:19;;;;;;;25.77;18.67;;;;;;;;;;5100246;28;20827;-73
2023/04/17 06:42:45;;;;;;;22.43;17.63;;;;;;;;;;5109358;28;20455;-74
2023/04/17 06:45:12;;;;;;;26.73;17.23;;;;;;;;;;5118796;28;20446;-74
2023/04/17 06:47:48;;;;;;;20.17;17.90;;;;;;;;;;5101098;28;20476;-71
2023/04/17 06:50:17;;;;;;;21.23;17.23;;;;;;;;;;5107739;28;20523;-76
2023/04/17 06:52:43;;;;;;;23.93;18.03;;;;;;;;;;5106902;28;20477;-73
2023/04/17 06:55:10;;;;;;;23.83;16.83;;;;;;;;;;5115473;28;20474;-74
2023/04/17 06:57:37;;;;;;;23.13;17.30;;;;;;;;;;5100876;28;20473;-74
2023/04/17 07:00:04;;;;;;;19.47;17.37;;;;;;;;;;5117041;28;20468;-72
2023/04/17 07:02:31;;;;;;;22.37;16.67;;;;;;;;;;5111940;28;20491;-74
2023/04/17 07:04:57;;;;;;;23.73;16.93;;;;;;;;;;5101216;28;20455;-74
2023/04/17 07:07:25;;;;;;;23.07;17.10;;;;;;;;;;5112087;28;20537;-73
2023/04/17 07:09:53;;;;;;;23.70;15.80;;;;;;;;;;5107802;28;20745;-73
2023/04/17 07:12:21;;;;;;;18.50;16.60;;;;;;;;;;5100580;28;20532;-73
2023/04/17 07:14:47;;;;;;;22.70;16.53;;;;;;;;;;5113258;28;20477;-73
2023/04/17 07:17:14;;;;;;;18.70;15.10;;;;;;;;;;5110911;28;20449;-73
2023/04/17 07:19:40;;;;;;;23.23;16.80;;;;;;;;;;5110370;28;20497;-74
2023/04/17 07:22:08;;;;;;;25.17;17.00;;;;;;;;;;5112532;28;20581;-73
2023/04/17 07:24:36;;;;;;;19.70;16.37;;;;;;;;;;5115535;28;20450;-72
2023/04/17 07:27:02;;;;;;;20.00;16.53;;;;;;;;;;5121154;28;20547;-74
2023/04/17 07:29:29;;;;;;;21.23;16.43;;;;;;;;;;5119317;28;20612;-72
2023/04/17 07:31:55;;;;;;;20.90;16.50;;;;;;;;;;5109270;28;20462;-73
2023/04/17 07:34:23;;;;;;;19.97;16.17;;;;;;;;;;5111200;28;20482;-73
2023/04/17 07:36:50;;;;;;;22.17;16.10;;;;;;;;;;5115197;28;20453;-73
2023/04/17 07:39:20;;;;;;;24.17;16.90;;;;;;;;;;5105512;28;20459;-73
2023/04/17 07:41:59;;;;;;;17.20;14.80;;;;;;;;;;5107760;28;20490;-72
2023/04/17 07:44:25;;;;;;;19.07;14.87;;;;;;;;;;5107988;28;20807;-75
2023/04/17 07:46:51;;;;;;;19.50;15.63;;;;;;;;;;5107614;28;20973;-73
2023/04/17 07:49:18;;;;;;;18.60;14.70;;;;;;;;;;5114402;28;20471;-74
2023/04/17 07:51:44;;;;;;;17.33;14.40;;;;;;;;;;5106128;28;20461;-74
2023/04/17 07:54:11;;;;;;;21.93;15.27;;;;;;;;;;5115381;28;20450;-74
2023/04/17 07:56:37;;;;;;;16.13;14.10;;;;;;;;;;5113470;28;20505;-74
2023/04/17 07:59:05;;;;;;;18.83;14.73;;;;;;;;;;5105922;28;21021;-72
2023/04/17 08:01:32;;;;;;;20.77;13.73;;;;;;;;;;5115248;28;20496;-74
2023/04/17 08:03:59;;;;;;;15.47;13.87;;;;;;;;;;5112039;28;20562;-73
2023/04/17 08:06:25;;;;;;;17.07;12.80;;;;;;;;;;5111167;28;20475;-74
2023/04/17 08:08:51;;;;;;;19.10;14.23;;;;;;;;;;5099574;28;20458;-73
2023/04/17 08:11:18;;;;;;;17.67;13.67;;;;;;;;;;5108720;28;20478;-73
2023/04/17 08:13:44;;;;;;;14.80;13.27;;;;;;;;;;5100466;28;20482;-73
2023/04/17 08:16:12;;;;;;;16.50;14.17;;;;;;;;;;5108229;28;20472;-74
2023/04/17 08:18:40;;;;;;;17.70;14.27;;;;;;;;;;5116165;28;20465;-73
2023/04/17 08:21:07;;;;;;;15.97;13.50;;;;;;;;;;5113257;28;20545;-72
2023/04/17 08:23:34;;;;;;;17.63;13.90;;;;;;;;;;5103858;28;20443;-74
2023/04/17 08:26:00;;;;;;;18.07;13.10;;;;;;;;;;5104520;28;20485;-72
2023/04/17 08:28:27;;;;;;;17.30;13.03;;;;;;;;;;5114915;28;20492;-72
2023/04/17 08:30:54;;;;;;;16.20;14.50;;;;;;;;;;5102020;28;20442;-73
2023/04/17 08:33:21;;;;;;;15.77;12.73;;;;;;;;;;5112416;28;20454;-73
2023/04/17 08:35:48;;;;;;;14.50;12.87;;;;;;;;;;5120146;28;20509;-73
2023/04/17 08:38:14;;;;;;;19.50;14.10;;;;;;;;;;5098924;28;20486;-74
2023/04/17 08:40:42;;;;;;;16.23;14.03;;;;;;;;;;5108317;28;20479;-74
2023/04/17 08:43:13;;;;;;;18.60;13.83;;;;;;;;;;5116106;28;20481;-73
2023/04/17 08:45:40;;;;;;;16.63;12.93;;;;;;;;;;5114968;28;20484;-73
2023/04/17 08:48:06;;;;;;;15.27;13.53;;;;;;;;;;5112833;28;20461;-73
2023/04/17 08:50:34;;;;;;;14.87;12.57;;;;;;;;;;5109922;28;20477;-72
2023/04/17 08:53:01;;;;;;;15.93;12.90;;;;;;;;;;5119424;28;20486;-73
2023/04/17 08:55:28;;;;;;;14.40;11.93;;;;;;;;;;5103511;28;20843;-72
2023/04/17 08:57:56;;;;;;;14.57;11.80;;;;;;;;;;5113648;28;20433;-74
2023/04/17 09:00:27;;;;;;;16.67;12.00;;;;;;;;;;5103871;28;20486;-73
2023/04/17 09:02:54;;;;;;;16.30;11.67;;;;;;;;;;5121679;28;20588;-74
2023/04/17 09:05:21;;;;;;;14.57;12.83;;;;;;;;;;5109428;28;20509;-72
2023/04/17 09:07:49;;;;;;;15.63;12.93;;;;;;;;;;5106321;28;20506;-73
2023/04/17 09:10:16;;;;;;;14.13;12.10;;;;;;;;;;5110195;28;20459;-72
2023/04/17 09:12:58;;;;;;;16.97;13.00;;;;;;;;;;5115753;28;20469;-74
2023/04/17 09:15:24;;;;;;;12.70;11.17;;;;;;;;;;5111965;28;20438;-74
2023/04/17 09:17:50;;;;;;;12.57;11.27;;;;;;;;;;5115952;28;20653;-74
2023/04/17 09:20:17;;;;;;;14.80;12.40;;;;;;;;;;5107365;28;20534;-74
2023/04/17 09:22:43;;;;;;;11.43;9.90;;;;;;;;;;5113051;28;20871;-74
2023/04/17 09:25:22;;;;;;;14.27;11.43;;;;;;;;;;5114435;28;20439;-74
2023/04/17 09:27:48;;;;;;;12.63;11.33;;;;;;;;;;5115742;28;20489;-74
2023/04/17 09:30:14;;;;;;;14.70;10.90;;;;;;;;;;5115604;28;20443;-74
2023/04/17 09:32:41;;;;;;;12.20;10.90;;;;;;;;;;5122252;28;20480;-73
2023/04/17 09:35:07;;;;;;;13.47;11.77;;;;;;;;;;5107380;28;20985;-73
2023/04/17 09:37:50;;;;;;;12.83;11.50;;;;;;;;;;5111332;28;20898;-73
2023/04/17 09:40:19;;;;;;;15.57;11.63;;;;;;;;;;5119332;28;20485;-74
2023/04/17 09:42:55;;;;;;;12.50;11.20;;;;;;;;;;5121209;28;20462;-73
2023/04/17 09:45:23;;;;;;;12.93;11.53;;;;;;;;;;5118709;28;20442;-72
2023/04/17 09:47:50;;;;;;;14.40;11.13;;;;;;;;;;5113133;28;20624;-73
2023/04/17 09:50:17;;;;;;;11.90;10.57;;;;;;;;;;5099359;28;20514;-73
2023/04/17 09:52:45;;;;;;;14.10;11.33;;;;;;;;;;5121498;28;20838;-73
2023/04/17 09:55:12;;;;;;;14.00;11.40;;;;;;;;;;5112314;28;20448;-73
2023/04/17 09:57:41;;;;;;;12.57;10.97;;;;;;;;;;5119171;28;20486;-73
2023/04/17 10:00:13;;;;;;;14.40;11.50;;;;;;;;;;5100696;28;20447;-74
2023/04/17 10:02:41;;;;;;;13.43;11.37;;;;;;;;;;5111038;28;20498;-74
2023/04/17 10:05:10;;;;;;;14.93;11.50;;;;;;;;;;5108851;28;20528;-74
2023/04/17 10:07:37;;;;;;;13.40;10.30;;;;;;;;;;5112493;28;20498;-74
2023/04/17 10:10:08;;;;;;;11.93;10.37;;;;;;;;;;5116768;28;20456;-74
2023/04/17 10:12:35;;;;;;;12.00;10.10;;;;;;;;;;5119188;28;20462;-74
2023/04/17 10:15:04;;;;;;;11.40;10.30;;;;;;;;;;5118436;28;20477;-74
2023/04/17 10:17:32;;;;;;;11.80;10.40;;;;;;;;;;5116396;28;20466;-74
2023/04/17 10:20:14;;;;;;;14.53;10.90;;;;;;;;;;5111514;28;20491;-73
2023/04/17 10:22:41;;;;;;;12.50;11.20;;;;;;;;;;5121531;28;20453;-73
2023/04/17 10:25:21;;;;;;;13.53;11.23;;;;;;;;;;5111663;28;20447;-73
2023/04/17 10:27:52;;;;;;;12.50;11.27;;;;;;;;;;5100353;28;20523;-73
2023/04/17 10:30:21;;;;;;;14.73;10.83;;;;;;;;;;5106397;28;20518;-74
2023/04/17 10:33:02;;;;;;;11.97;10.27;;;;;;;;;;5120509;28;20586;-73
2023/04/17 10:35:36;;;;;;;12.17;10.90;;;;;;;;;;5109985;28;20484;-73
2023/04/17 10:38:04;;;;;;;14.23;11.80;;;;;;;;;;5111083;28;20448;-72
2023/04/17 10:40:31;;;;;;;13.20;11.70;;;;;;;;;;5105772;28;20587;-73
2023/04/17 10:43:04;;;;;;;13.57;10.80;;;;;;;;;;5112007;28;20489;-74
2023/04/17 10:45:49;;;;;;;11.73;9.70;;;;;;;;;;5116289;28;20482;-73
2023/04/17 10:48:21;;;;;;;12.10;10.00;;;;;;;;;;5111439;28;20506;-74
2023/04/17 10:50:47;;;;;;;13.43;11.10;;;;;;;;;;5108556;28;20454;-73
2023/04/17 10:53:28;;;;;;;14.27;11.60;;;;;;;;;;5119807;28;20492;-74
2023/04/17 10:55:56;;;;;;;11.97;10.77;;;;;;;;;;5109733;28;20445;-74
2023/04/17 10:58:23;;;;;;;14.63;10.97;;;;;;;;;;5100911;28;20494;-74
2023/04/17 11:00:50;;;;;;;12.93;10.67;;;;;;;;;;5112906;28;20523;-74
2023/04/17 11:03:16;;;;;;;13.67;11.47;;;;;;;;;;5107507;28;20489;-73
2023/04/17 11:05:46;;;;;;;10.90;9.20;;;;;;;;;;5113060;28;20477;-73
2023/04/17 11:08:12;;;;;;;15.50;10.53;;;;;;;;;;5107334;28;20518;-75
2023/04/17 11:10:39;;;;;;;12.63;9.13;;;;;;;;;;5112743;28;20482;-72
2023/04/17 11:13:06;;;;;;;11.30;9.07;;;;;;;;;;5104560;28;20530;-74
2023/04/17 11:15:33;;;;;;;11.63;10.53;;;;;;;;;;5108353;28;20485;-74
2023/04/17 11:18:00;;;;;;;12.97;10.27;;;;;;;;;;5113060;28;20468;-73
2023/04/17 11:20:28;;;;;;;12.60;9.60;;;;;;;;;;5116625;28;20473;-74
2023/04/17 11:22:56;;;;;;;16.50;11.50;;;;;;;;;;5108156;28;20985;-74
2023/04/17 11:25:23;;;;;;;13.37;10.57;;;;;;;;;;5107168;28;20483;-73
2023/04/17 11:27:50;;;;;;;19.60;10.93;;;;;;;;;;5112279;28;20726;-74
2023/04/17 11:30:24;;;;;;;12.73;11.40;;;;;;;;;;5112864;28;20455;-72
2023/04/17 11:33:01;;;;;;;11.90;10.30;;;;;;;;;;5098338;28;20459;-74
2023/04/17 11:35:28;;;;;;;10.10;9.10;;;;;;;;;;5108054;28;20449;-74
2023/04/17 11:38:06;;;;;;;11.77;9.93;;;;;;;;;;5103869;28;20592;-73
2023/04/17 11:40:32;;;;;;;10.53;9.43;;;;;;;;;;5110603;28;20483;-72
2023/04/17 11:43:02;;;;;;;12.60;10.57;;;;;;;;;;5112102;28;20470;-72
2023/04/17 11:45:31;;;;;;;15.43;10.07;;;;;;;;;;5110738;28;20442;-72
2023/04/17 11:47:57;;;;;;;11.90;9.03;;;;;;;;;;5113230;28;20486;-72
2023/04/17 11:50:27;;;;;;;13.10;11.37;;;;;;;;;;5114086;28;20454;-73
2023/04/17 11:52:56;;;;;;;10.70;9.60;;;;;;;;;;5091625;28;20482;-74
2023/04/17 11:55:29;;;;;;;13.50;11.60;;;;;;;;;;5116533;28;20474;-73
2023/04/17 11:57:55;;;;;;;16.40;12.03;;;;;;;;;;5102785;28;20929;-73
2023/04/17 12:00:26;;;;;;;15.37;10.43;;;;;;;;;;5107120;28;20460;-73
2023/04/17 12:02:52;;;;;;;11.43;10.30;;;;;;;;;;5118278;28;20513;-72
2023/04/17 12:05:19;;;;;;;14.87;11.07;;;;;;;;;;5117527;28;20492;-73
2023/04/17 12:07:45;;;;;;;13.70;10.60;;;;;;;;;;5114058;28;20466;-70
2023/04/17 12:10:12;;;;;;;11.37;9.47;;;;;;;;;;5104969;28;20462;-74
2023/04/17 12:12:39;;;;;;;12.73;10.20;;;;;;;;;;5114973;28;20467;-74
2023/04/17 12:15:06;;;;;;;11.90;9.30;;;;;;;;;;5114569;28;20465;-74
2023/04/17 12:17:33;;;;;;;11.37;10.17;;;;;;;;;;5107532;28;20469;-74
2023/04/17 12:20:02;;;;;;;12.43;10.70;;;;;;;;;;5107554;28;20458;-74
2023/04/17 12:22:29;;;;;;;13.27;10.83;;;;;;;;;;5117579;28;20450;-74
2023/04/17 12:24:55;;;;;;;14.80;9.80;;;;;;;;;;5104810;28;20478;-74
2023/04/17 12:27:22;;;;;;;13.17;10.00;;;;;;;;;;5120081;28;20497;-74
2023/04/17 12:29:50;;;;;;;13.93;10.07;;;;;;;;;;5106620;28;20455;-73
2023/04/17 12:32:16;;;;;;;11.43;9.80;;;;;;;;;;5107349;28;20446;-74
2023/04/17 12:34:42;;;;;;;12.47;10.63;;;;;;;;;;5106824;28;20442;-74
2023/04/17 12:37:09;;;;;;;14.73;10.50;;;;;;;;;;5119024;28;20992;-73
2023/04/17 12:39:35;;;;;;;11.50;10.30;;;;;;;;;;5114078;28;20470;-74
2023/04/17 12:42:01;;;;;;;18.73;12.43;;;;;;;;;;5114990;28;20490;-72
2023/04/17 12:44:28;;;;;;;12.00;10.80;;;;;;;;;;5114970;28;20481;-73
2023/04/17 12:46:56;;;;;;;13.23;10.10;;;;;;;;;;5121955;28;20478;-73
2023/04/17 12:49:23;;;;;;;13.17;10.93;;;;;;;;;;5113392;28;20461;-73
2023/04/17 12:51:50;;;;;;;13.90;11.00;;;;;;;;;;5109871;28;20478;-71
2023/04/17 12:54:16;;;;;;;10.37;9.37;;;;;;;;;;5125079;27;20445;-73
2023/04/17 12:56:42;;;;;;;14.53;10.20;;;;;;;;;;5115910;27;20518;-73
2023/04/17 12:59:09;;;;;;;10.97;9.80;;;;;;;;;;5121615;27;20533;-72
2023/04/17 13:01:35;;;;;;;13.70;10.27;;;;;;;;;;5121755;28;20470;-72
2023/04/17 13:04:03;;;;;;;10.67;9.57;;;;;;;;;;5107019;28;20475;-74
2023/04/17 13:06:31;;;;;;;10.70;9.43;;;;;;;;;;5118882;28;20510;-74
2023/04/17 13:08:57;;;;;;;10.77;9.13;;;;;;;;;;5115273;28;20576;-73
2023/04/17 13:11:24;;;;;;;13.67;9.70;;;;;;;;;;5115991;28;20478;-73
2023/04/17 13:13:50;;;;;;;11.93;9.87;;;;;;;;;;5120846;28;20465;-73
2023/04/17 13:16:16;;;;;;;12.27;9.33;;;;;;;;;;5101496;28;20477;-73
2023/04/17 13:18:43;;;;;;;11.30;9.23;;;;;;;;;;5107330;28;20458;-73
2023/04/17 13:21:11;;;;;;;11.07;9.30;;;;;;;;;;5114950;28;20472;-73
2023/04/17 13:23:37;;;;;;;13.17;9.73;;;;;;;;;;5115565;28;20478;-74
2023/04/17 13:26:04;;;;;;;11.67;9.63;;;;;;;;;;5106251;28;20473;-73
2023/04/17 13:28:30;;;;;;;12.90;9.20;;;;;;;;;;5118073;27;20500;-75
2023/04/17 13:30:56;;;;;;;9.53;8.53;;;;;;;;;;5117353;28;20477;-73
2023/04/17 13:33:23;;;;;;;9.97;8.47;;;;;;;;;;5106821;28;20455;-73
2023/04/17 13:35:51;;;;;;;10.03;9.03;;;;;;;;;;5116804;28;20485;-74
2023/04/17 13:38:19;;;;;;;12.93;10.20;;;;;;;;;;5119034;28;20467;-73
2023/04/17 13:40:46;;;;;;;14.53;9.80;;;;;;;;;;5103696;28;20508;-73
2023/04/17 13:43:12;;;;;;;13.53;10.80;;;;;;;;;;5123232;27;20479;-73
2023/04/17 13:45:38;;;;;;;13.07;10.00;;;;;;;;;;5125183;27;20446;-73
2023/04/17 13:48:05;;;;;;;15.83;10.13;;;;;;;;;;5122946;27;20549;-72
2023/04/17 13:50:31;;;;;;;16.33;11.13;;;;;;;;;;5125185;27;20624;-72
2023/04/17 13:52:58;;;;;;;13.00;11.00;;;;;;;;;;5104527;28;20476;-73
2023/04/17 13:55:25;;;;;;;12.50;11.20;;;;;;;;;;5111323;28;20535;-72
2023/04/17 13:57:53;;;;;;;12.30;10.50;;;;;;;;;;5125748;27;20446;-71
2023/04/17 14:00:20;;;;;;;15.03;11.20;;;;;;;;;;5129148;27;20457;-74
2023/04/17 14:02:47;;;;;;;14.37;11.20;;;;;;;;;;5113502;27;20489;-72
2023/04/17 14:05:13;;;;;;;14.07;11.53;;;;;;;;;;5117118;27;20487;-72
2023/04/17 14:07:40;;;;;;;12.87;11.00;;;;;;;;;;5117918;28;20583;-73
2023/04/17 14:10:07;;;;;;;14.53;11.00;;;;;;;;;;5106041;28;20477;-73
2023/04/17 14:12:35;;;;;;;12.67;10.93;;;;;;;;;;5112418;28;20545;-72
2023/04/17 14:15:01;;;;;;;12.50;10.47;;;;;;;;;;5117657;28;20442;-73
2023/04/17 14:17:28;;;;;;;15.67;10.53;;;;;;;;;;5114314;27;20892;-80
2023/04/17 14:19:54;;;;;;;16.70;10.97;;;;;;;;;;5102200;27;20456;-74